sensor_id;sensor_type;location;lat;lon;timestamp;P1;durP1;ratioP1;P2;durP2;ratioP2
22687;SDS011;11511;51.514;7.080;2022-12-28T00:00:49;5.43;;;1.85;;
22687;SDS011;11511;51.514;7.080;2022-12-28T00:03:15;2.53;;;1.35;;
22687;SDS011;11511;51.514;7.080;2022-12-28T00:05:41;2.85;;;1.40;;
22687;SDS011;11511;51.514;7.080;2022-12-28T00:08:07;4.00;;;1.52;;
22687;SDS011;11511;51.514;7.080;2022-12-28T00:10:32;3.38;;;1.60;;
22687;SDS011;11511;51.514;7.080;2022-12-28T00:12:58;5.45;;;1.70;;
22687;SDS011;11511;51.514;7.080;2022-12-28T00:15:24;9.45;;;2.00;;
22687;SDS011;11511;51.514;7.080;2022-12-28T00:17:49;5.20;;;1.50;;
22687;SDS011;11511;51.514;7.080;2022-12-28T00:20:15;5.45;;;1.52;;
22687;SDS011;11511;51.514;7.080;2022-12-28T00:22:40;6.10;;;1.73;;
22687;SDS011;11511;51.514;7.080;2022-12-28T00:25:06;4.25;;;1.58;;
22687;SDS011;11511;51.514;7.080;2022-12-28T00:27:32;5.05;;;1.55;;
22687;SDS011;11511;51.514;7.080;2022-12-28T00:29:58;4.82;;;1.60;;
22687;SDS011;11511;51.514;7.080;2022-12-28T00:32:24;5.72;;;1.80;;
22687;SDS011;11511;51.514;7.080;2022-12-28T00:34:52;5.25;;;1.77;;
22687;SDS011;11511;51.514;7.080;2022-12-28T00:37:17;4.10;;;1.52;;
22687;SDS011;11511;51.514;7.080;2022-12-28T00:39:43;4.22;;;1.63;;
22687;SDS011;11511;51.514;7.080;2022-12-28T00:42:13;5.63;;;1.98;;
22687;SDS011;11511;51.514;7.080;2022-12-28T00:44:39;4.43;;;1.75;;
22687;SDS011;11511;51.514;7.080;2022-12-28T00:47:04;5.03;;;2.05;;
22687;SDS011;11511;51.514;7.080;2022-12-28T00:49:32;5.70;;;1.70;;
22687;SDS011;11511;51.514;7.080;2022-12-28T00:51:58;2.63;;;1.77;;
22687;SDS011;11511;51.514;7.080;2022-12-28T00:54:24;3.08;;;1.70;;
22687;SDS011;11511;51.514;7.080;2022-12-28T00:56:49;8.15;;;2.25;;
22687;SDS011;11511;51.514;7.080;2022-12-28T00:59:15;5.15;;;2.00;;
22687;SDS011;11511;51.514;7.080;2022-12-28T01:01:42;6.18;;;2.30;;
22687;SDS011;11511;51.514;7.080;2022-12-28T01:04:08;7.32;;;2.35;;
22687;SDS011;11511;51.514;7.080;2022-12-28T01:06:34;4.45;;;1.67;;
22687;SDS011;11511;51.514;7.080;2022-12-28T01:08:59;2.75;;;1.70;;
22687;SDS011;11511;51.514;7.080;2022-12-28T01:11:26;3.85;;;1.77;;
22687;SDS011;11511;51.514;7.080;2022-12-28T01:13:55;8.05;;;2.28;;
22687;SDS011;11511;51.514;7.080;2022-12-28T01:16:23;6.80;;;2.33;;
22687;SDS011;11511;51.514;7.080;2022-12-28T01:18:51;5.47;;;2.20;;
22687;SDS011;11511;51.514;7.080;2022-12-28T01:21:20;5.60;;;2.10;;
22687;SDS011;11511;51.514;7.080;2022-12-28T01:23:48;4.60;;;2.15;;
22687;SDS011;11511;51.514;7.080;2022-12-28T01:26:16;6.57;;;2.30;;
22687;SDS011;11511;51.514;7.080;2022-12-28T01:28:43;5.95;;;2.25;;
22687;SDS011;11511;51.514;7.080;2022-12-28T01:31:11;4.57;;;2.20;;
22687;SDS011;11511;51.514;7.080;2022-12-28T01:33:39;9.82;;;2.17;;
22687;SDS011;11511;51.514;7.080;2022-12-28T01:36:10;5.75;;;2.03;;
22687;SDS011;11511;51.514;7.080;2022-12-28T01:38:39;5.75;;;2.35;;
22687;SDS011;11511;51.514;7.080;2022-12-28T01:41:08;5.82;;;1.95;;
22687;SDS011;11511;51.514;7.080;2022-12-28T01:43:43;6.95;;;2.55;;
22687;SDS011;11511;51.514;7.080;2022-12-28T01:46:23;4.55;;;1.85;;
22687;SDS011;11511;51.514;7.080;2022-12-28T01:51:28;4.57;;;2.20;;
22687;SDS011;11511;51.514;7.080;2022-12-28T01:53:56;5.40;;;1.80;;
22687;SDS011;11511;51.514;7.080;2022-12-28T01:56:25;5.03;;;2.10;;
22687;SDS011;11511;51.514;7.080;2022-12-28T01:58:52;4.65;;;2.00;;
22687;SDS011;11511;51.514;7.080;2022-12-28T02:01:19;7.10;;;2.03;;
22687;SDS011;11511;51.514;7.080;2022-12-28T02:03:45;6.35;;;1.50;;
22687;SDS011;11511;51.514;7.080;2022-12-28T02:06:11;4.50;;;2.20;;
22687;SDS011;11511;51.514;7.080;2022-12-28T02:08:48;2.72;;;1.70;;
22687;SDS011;11511;51.514;7.080;2022-12-28T02:11:20;5.25;;;1.73;;
22687;SDS011;11511;51.514;7.080;2022-12-28T02:13:46;7.07;;;2.05;;
22687;SDS011;11511;51.514;7.080;2022-12-28T02:16:13;5.90;;;2.20;;
22687;SDS011;11511;51.514;7.080;2022-12-28T02:18:41;5.30;;;1.77;;
22687;SDS011;11511;51.514;7.080;2022-12-28T02:29:02;4.30;;;1.55;;
22687;SDS011;11511;51.514;7.080;2022-12-28T02:36:58;3.08;;;1.73;;
22687;SDS011;11511;51.514;7.080;2022-12-28T02:39:33;3.35;;;1.90;;
22687;SDS011;11511;51.514;7.080;2022-12-28T02:42:04;3.58;;;1.80;;
22687;SDS011;11511;51.514;7.080;2022-12-28T02:44:34;3.75;;;1.55;;
22687;SDS011;11511;51.514;7.080;2022-12-28T02:47:19;6.25;;;1.85;;
22687;SDS011;11511;51.514;7.080;2022-12-28T02:50:04;4.28;;;1.70;;
22687;SDS011;11511;51.514;7.080;2022-12-28T03:04:13;1.90;;;1.50;;
22687;SDS011;11511;51.514;7.080;2022-12-28T03:06:51;3.42;;;1.77;;
22687;SDS011;11511;51.514;7.080;2022-12-28T03:09:48;4.63;;;1.83;;
22687;SDS011;11511;51.514;7.080;2022-12-28T03:12:34;3.05;;;1.73;;
22687;SDS011;11511;51.514;7.080;2022-12-28T03:15:06;3.60;;;1.67;;
22687;SDS011;11511;51.514;7.080;2022-12-28T03:17:37;2.53;;;1.70;;
22687;SDS011;11511;51.514;7.080;2022-12-28T03:20:26;2.70;;;1.85;;
22687;SDS011;11511;51.514;7.080;2022-12-28T03:23:16;5.25;;;2.00;;
22687;SDS011;11511;51.514;7.080;2022-12-28T03:26:05;3.63;;;2.17;;
22687;SDS011;11511;51.514;7.080;2022-12-28T03:28:52;5.22;;;2.40;;
22687;SDS011;11511;51.514;7.080;2022-12-28T03:31:41;2.03;;;1.90;;
22687;SDS011;11511;51.514;7.080;2022-12-28T03:34:10;6.43;;;2.67;;
22687;SDS011;11511;51.514;7.080;2022-12-28T03:39:43;4.78;;;2.58;;
22687;SDS011;11511;51.514;7.080;2022-12-28T03:48:03;8.40;;;3.30;;
22687;SDS011;11511;51.514;7.080;2022-12-28T03:50:30;6.82;;;2.90;;
22687;SDS011;11511;51.514;7.080;2022-12-28T03:53:01;6.22;;;2.70;;
22687;SDS011;11511;51.514;7.080;2022-12-28T03:55:29;6.43;;;2.55;;
22687;SDS011;11511;51.514;7.080;2022-12-28T03:57:55;6.32;;;2.65;;
22687;SDS011;11511;51.514;7.080;2022-12-28T04:00:25;6.18;;;2.30;;
22687;SDS011;11511;51.514;7.080;2022-12-28T04:02:52;3.78;;;2.33;;
22687;SDS011;11511;51.514;7.080;2022-12-28T04:05:18;6.38;;;2.40;;
22687;SDS011;11511;51.514;7.080;2022-12-28T04:07:46;3.38;;;2.13;;
22687;SDS011;11511;51.514;7.080;2022-12-28T04:10:12;3.83;;;2.20;;
22687;SDS011;11511;51.514;7.080;2022-12-28T04:12:37;5.13;;;2.67;;
22687;SDS011;11511;51.514;7.080;2022-12-28T04:15:18;4.78;;;2.42;;
22687;SDS011;11511;51.514;7.080;2022-12-28T04:17:44;4.40;;;2.53;;
22687;SDS011;11511;51.514;7.080;2022-12-28T04:20:09;7.97;;;2.50;;
22687;SDS011;11511;51.514;7.080;2022-12-28T04:22:36;5.00;;;2.72;;
22687;SDS011;11511;51.514;7.080;2022-12-28T04:25:01;4.15;;;2.35;;
22687;SDS011;11511;51.514;7.080;2022-12-28T04:27:28;5.88;;;2.70;;
22687;SDS011;11511;51.514;7.080;2022-12-28T04:30:01;6.13;;;2.53;;
22687;SDS011;11511;51.514;7.080;2022-12-28T04:32:30;7.45;;;2.55;;
22687;SDS011;11511;51.514;7.080;2022-12-28T04:34:57;5.22;;;2.70;;
22687;SDS011;11511;51.514;7.080;2022-12-28T04:37:22;5.32;;;2.42;;
22687;SDS011;11511;51.514;7.080;2022-12-28T04:39:48;5.00;;;2.55;;
22687;SDS011;11511;51.514;7.080;2022-12-28T04:42:13;4.95;;;2.70;;
22687;SDS011;11511;51.514;7.080;2022-12-28T04:44:39;9.60;;;3.15;;
22687;SDS011;11511;51.514;7.080;2022-12-28T04:47:05;7.15;;;2.88;;
22687;SDS011;11511;51.514;7.080;2022-12-28T04:49:30;4.22;;;3.10;;
22687;SDS011;11511;51.514;7.080;2022-12-28T04:51:56;7.18;;;3.33;;
22687;SDS011;11511;51.514;7.080;2022-12-28T04:54:21;5.43;;;3.03;;
22687;SDS011;11511;51.514;7.080;2022-12-28T04:56:47;4.40;;;2.80;;
22687;SDS011;11511;51.514;7.080;2022-12-28T04:59:13;6.65;;;3.30;;
22687;SDS011;11511;51.514;7.080;2022-12-28T05:01:38;6.65;;;3.53;;
22687;SDS011;11511;51.514;7.080;2022-12-28T05:04:04;5.50;;;2.60;;
22687;SDS011;11511;51.514;7.080;2022-12-28T05:06:30;6.63;;;3.38;;
22687;SDS011;11511;51.514;7.080;2022-12-28T05:08:55;8.15;;;3.63;;
22687;SDS011;11511;51.514;7.080;2022-12-28T05:11:22;8.85;;;3.60;;
22687;SDS011;11511;51.514;7.080;2022-12-28T05:13:51;6.65;;;3.50;;
22687;SDS011;11511;51.514;7.080;2022-12-28T05:16:18;6.53;;;3.42;;
22687;SDS011;11511;51.514;7.080;2022-12-28T05:18:46;8.07;;;3.50;;
22687;SDS011;11511;51.514;7.080;2022-12-28T05:21:16;11.80;;;4.18;;
22687;SDS011;11511;51.514;7.080;2022-12-28T05:23:43;10.10;;;4.07;;
22687;SDS011;11511;51.514;7.080;2022-12-28T05:26:10;7.18;;;3.92;;
22687;SDS011;11511;51.514;7.080;2022-12-28T05:28:38;7.13;;;3.88;;
22687;SDS011;11511;51.514;7.080;2022-12-28T05:31:05;8.90;;;4.18;;
22687;SDS011;11511;51.514;7.080;2022-12-28T05:33:33;7.97;;;3.95;;
22687;SDS011;11511;51.514;7.080;2022-12-28T05:36:03;5.20;;;3.90;;
22687;SDS011;11511;51.514;7.080;2022-12-28T05:38:30;6.93;;;3.95;;
22687;SDS011;11511;51.514;7.080;2022-12-28T05:41:02;6.82;;;4.00;;
22687;SDS011;11511;51.514;7.080;2022-12-28T05:43:29;7.22;;;3.47;;
22687;SDS011;11511;51.514;7.080;2022-12-28T05:45:59;5.82;;;3.85;;
22687;SDS011;11511;51.514;7.080;2022-12-28T05:48:28;6.55;;;3.92;;
22687;SDS011;11511;51.514;7.080;2022-12-28T05:50:59;6.30;;;3.50;;
22687;SDS011;11511;51.514;7.080;2022-12-28T05:53:30;8.48;;;4.03;;
22687;SDS011;11511;51.514;7.080;2022-12-28T05:56:15;7.90;;;4.50;;
22687;SDS011;11511;51.514;7.080;2022-12-28T05:58:51;5.70;;;3.45;;
22687;SDS011;11511;51.514;7.080;2022-12-28T06:01:20;5.63;;;4.20;;
22687;SDS011;11511;51.514;7.080;2022-12-28T06:03:47;10.38;;;4.43;;
22687;SDS011;11511;51.514;7.080;2022-12-28T06:06:17;8.00;;;4.38;;
22687;SDS011;11511;51.514;7.080;2022-12-28T06:08:44;7.10;;;4.38;;
22687;SDS011;11511;51.514;7.080;2022-12-28T06:11:12;8.07;;;4.60;;
22687;SDS011;11511;51.514;7.080;2022-12-28T06:13:40;7.38;;;4.75;;
22687;SDS011;11511;51.514;7.080;2022-12-28T06:18:33;9.93;;;4.50;;
22687;SDS011;11511;51.514;7.080;2022-12-28T06:21:07;11.45;;;4.57;;
22687;SDS011;11511;51.514;7.080;2022-12-28T06:23:35;10.25;;;4.25;;
22687;SDS011;11511;51.514;7.080;2022-12-28T06:26:01;6.68;;;4.32;;
22687;SDS011;11511;51.514;7.080;2022-12-28T06:28:29;8.65;;;4.65;;
22687;SDS011;11511;51.514;7.080;2022-12-28T06:31:07;8.38;;;4.22;;
22687;SDS011;11511;51.514;7.080;2022-12-28T06:33:37;8.90;;;4.25;;
22687;SDS011;11511;51.514;7.080;2022-12-28T06:36:04;8.75;;;4.03;;
22687;SDS011;11511;51.514;7.080;2022-12-28T06:38:35;7.97;;;4.28;;
22687;SDS011;11511;51.514;7.080;2022-12-28T06:41:02;7.53;;;4.07;;
22687;SDS011;11511;51.514;7.080;2022-12-28T06:43:32;6.95;;;4.13;;
22687;SDS011;11511;51.514;7.080;2022-12-28T06:45:58;6.53;;;4.38;;
22687;SDS011;11511;51.514;7.080;2022-12-28T06:48:25;9.50;;;4.05;;
22687;SDS011;11511;51.514;7.080;2022-12-28T06:51:05;9.80;;;4.00;;
22687;SDS011;11511;51.514;7.080;2022-12-28T06:53:39;7.57;;;4.22;;
22687;SDS011;11511;51.514;7.080;2022-12-28T06:56:26;5.28;;;3.83;;
22687;SDS011;11511;51.514;7.080;2022-12-28T06:58:53;12.80;;;4.13;;
22687;SDS011;11511;51.514;7.080;2022-12-28T07:01:20;6.18;;;3.85;;
22687;SDS011;11511;51.514;7.080;2022-12-28T07:03:48;5.75;;;3.05;;
22687;SDS011;11511;51.514;7.080;2022-12-28T07:06:16;7.38;;;3.80;;
22687;SDS011;11511;51.514;7.080;2022-12-28T07:08:44;6.50;;;3.60;;
22687;SDS011;11511;51.514;7.080;2022-12-28T07:11:11;8.50;;;3.78;;
22687;SDS011;11511;51.514;7.080;2022-12-28T07:13:38;7.75;;;3.58;;
22687;SDS011;11511;51.514;7.080;2022-12-28T07:16:15;4.65;;;3.15;;
22687;SDS011;11511;51.514;7.080;2022-12-28T07:18:42;6.80;;;3.90;;
22687;SDS011;11511;51.514;7.080;2022-12-28T07:21:17;8.75;;;3.75;;
22687;SDS011;11511;51.514;7.080;2022-12-28T07:23:46;7.03;;;3.70;;
22687;SDS011;11511;51.514;7.080;2022-12-28T07:26:14;5.47;;;3.80;;
22687;SDS011;11511;51.514;7.080;2022-12-28T07:28:43;5.80;;;3.60;;
22687;SDS011;11511;51.514;7.080;2022-12-28T07:31:13;7.15;;;4.00;;
22687;SDS011;11511;51.514;7.080;2022-12-28T07:33:41;6.45;;;3.65;;
22687;SDS011;11511;51.514;7.080;2022-12-28T07:36:09;6.80;;;3.80;;
22687;SDS011;11511;51.514;7.080;2022-12-28T07:38:36;6.22;;;3.70;;
22687;SDS011;11511;51.514;7.080;2022-12-28T07:41:07;8.10;;;4.00;;
22687;SDS011;11511;51.514;7.080;2022-12-28T07:43:38;9.48;;;4.53;;
22687;SDS011;11511;51.514;7.080;2022-12-28T07:46:08;5.63;;;4.00;;
22687;SDS011;11511;51.514;7.080;2022-12-28T07:48:37;8.20;;;4.43;;
22687;SDS011;11511;51.514;7.080;2022-12-28T07:51:05;7.18;;;3.90;;
22687;SDS011;11511;51.514;7.080;2022-12-28T07:53:36;8.73;;;4.25;;
22687;SDS011;11511;51.514;7.080;2022-12-28T07:56:02;6.82;;;3.65;;
22687;SDS011;11511;51.514;7.080;2022-12-28T07:58:29;7.38;;;3.80;;
22687;SDS011;11511;51.514;7.080;2022-12-28T08:01:01;7.78;;;4.40;;
22687;SDS011;11511;51.514;7.080;2022-12-28T08:03:37;5.90;;;3.28;;
22687;SDS011;11511;51.514;7.080;2022-12-28T08:06:09;6.63;;;3.28;;
22687;SDS011;11511;51.514;7.080;2022-12-28T08:08:42;12.82;;;3.47;;
22687;SDS011;11511;51.514;7.080;2022-12-28T08:11:15;5.15;;;3.45;;
22687;SDS011;11511;51.514;7.080;2022-12-28T08:13:44;5.75;;;3.20;;
22687;SDS011;11511;51.514;7.080;2022-12-28T08:16:13;6.55;;;3.30;;
22687;SDS011;11511;51.514;7.080;2022-12-28T08:18:40;6.80;;;3.30;;
22687;SDS011;11511;51.514;7.080;2022-12-28T08:21:11;4.75;;;3.20;;
22687;SDS011;11511;51.514;7.080;2022-12-28T08:23:39;5.05;;;3.10;;
22687;SDS011;11511;51.514;7.080;2022-12-28T08:28:34;6.07;;;2.92;;
22687;SDS011;11511;51.514;7.080;2022-12-28T08:31:05;6.25;;;2.90;;
22687;SDS011;11511;51.514;7.080;2022-12-28T08:33:32;4.75;;;2.30;;
22687;SDS011;11511;51.514;7.080;2022-12-28T08:35:58;5.25;;;3.13;;
22687;SDS011;11511;51.514;7.080;2022-12-28T08:38:24;4.40;;;2.13;;
22687;SDS011;11511;51.514;7.080;2022-12-28T08:40:56;8.25;;;2.58;;
22687;SDS011;11511;51.514;7.080;2022-12-28T08:43:24;4.67;;;2.20;;
22687;SDS011;11511;51.514;7.080;2022-12-28T08:45:58;4.30;;;2.38;;
22687;SDS011;11511;51.514;7.080;2022-12-28T08:48:30;3.85;;;1.73;;
22687;SDS011;11511;51.514;7.080;2022-12-28T08:51:41;4.70;;;1.90;;
22687;SDS011;11511;51.514;7.080;2022-12-28T08:53:43;3.45;;;1.88;;
22687;SDS011;11511;51.514;7.080;2022-12-28T08:56:11;4.05;;;1.50;;
22687;SDS011;11511;51.514;7.080;2022-12-28T08:58:42;2.85;;;1.38;;
22687;SDS011;11511;51.514;7.080;2022-12-28T09:01:10;1.88;;;1.40;;
22687;SDS011;11511;51.514;7.080;2022-12-28T09:03:39;2.67;;;1.42;;
22687;SDS011;11511;51.514;7.080;2022-12-28T09:06:08;1.75;;;1.35;;
22687;SDS011;11511;51.514;7.080;2022-12-28T09:08:36;5.38;;;1.80;;
22687;SDS011;11511;51.514;7.080;2022-12-28T09:11:02;1.80;;;1.33;;
22687;SDS011;11511;51.514;7.080;2022-12-28T09:13:30;3.08;;;1.40;;
22687;SDS011;11511;51.514;7.080;2022-12-28T09:15:57;1.85;;;1.25;;
22687;SDS011;11511;51.514;7.080;2022-12-28T09:18:25;4.32;;;1.40;;
22687;SDS011;11511;51.514;7.080;2022-12-28T09:20:52;3.10;;;1.17;;
22687;SDS011;11511;51.514;7.080;2022-12-28T09:23:17;3.33;;;1.27;;
22687;SDS011;11511;51.514;7.080;2022-12-28T09:25:43;1.35;;;1.00;;
22687;SDS011;11511;51.514;7.080;2022-12-28T09:28:09;2.22;;;1.20;;
22687;SDS011;11511;51.514;7.080;2022-12-28T09:30:34;2.85;;;1.40;;
22687;SDS011;11511;51.514;7.080;2022-12-28T09:33:00;5.88;;;2.10;;
22687;SDS011;11511;51.514;7.080;2022-12-28T09:35:45;1.40;;;1.30;;
22687;SDS011;11511;51.514;7.080;2022-12-28T09:38:11;1.52;;;1.10;;
22687;SDS011;11511;51.514;7.080;2022-12-28T09:40:37;2.13;;;1.33;;
22687;SDS011;11511;51.514;7.080;2022-12-28T09:43:03;3.10;;;1.13;;
22687;SDS011;11511;51.514;7.080;2022-12-28T09:45:30;1.80;;;0.90;;
22687;SDS011;11511;51.514;7.080;2022-12-28T09:47:58;3.70;;;1.30;;
22687;SDS011;11511;51.514;7.080;2022-12-28T09:50:29;2.20;;;1.20;;
22687;SDS011;11511;51.514;7.080;2022-12-28T09:55:53;2.35;;;1.02;;
22687;SDS011;11511;51.514;7.080;2022-12-28T09:58:24;4.75;;;1.30;;
22687;SDS011;11511;51.514;7.080;2022-12-28T10:00:54;2.38;;;1.10;;
22687;SDS011;11511;51.514;7.080;2022-12-28T10:03:23;2.65;;;1.00;;
22687;SDS011;11511;51.514;7.080;2022-12-28T10:05:52;2.80;;;1.15;;
22687;SDS011;11511;51.514;7.080;2022-12-28T10:08:20;2.40;;;1.00;;
22687;SDS011;11511;51.514;7.080;2022-12-28T10:10:48;1.60;;;0.90;;
22687;SDS011;11511;51.514;7.080;2022-12-28T10:13:17;3.17;;;0.90;;
22687;SDS011;11511;51.514;7.080;2022-12-28T10:15:46;1.45;;;1.25;;
22687;SDS011;11511;51.514;7.080;2022-12-28T10:18:13;2.72;;;0.95;;
22687;SDS011;11511;51.514;7.080;2022-12-28T10:20:40;3.42;;;0.98;;
22687;SDS011;11511;51.514;7.080;2022-12-28T10:23:13;1.35;;;0.90;;
22687;SDS011;11511;51.514;7.080;2022-12-28T10:25:45;1.10;;;0.70;;
22687;SDS011;11511;51.514;7.080;2022-12-28T10:28:13;2.10;;;1.10;;
22687;SDS011;11511;51.514;7.080;2022-12-28T10:30:45;1.65;;;0.98;;
22687;SDS011;11511;51.514;7.080;2022-12-28T10:33:16;1.00;;;0.90;;
22687;SDS011;11511;51.514;7.080;2022-12-28T10:35:50;1.48;;;0.90;;
22687;SDS011;11511;51.514;7.080;2022-12-28T10:38:25;2.15;;;0.98;;
22687;SDS011;11511;51.514;7.080;2022-12-28T10:43:22;1.85;;;0.90;;
22687;SDS011;11511;51.514;7.080;2022-12-28T10:45:57;2.90;;;0.82;;
22687;SDS011;11511;51.514;7.080;2022-12-28T10:48:26;1.45;;;0.90;;
22687;SDS011;11511;51.514;7.080;2022-12-28T10:53:44;3.60;;;1.00;;
22687;SDS011;11511;51.514;7.080;2022-12-28T10:58:41;1.02;;;0.85;;
22687;SDS011;11511;51.514;7.080;2022-12-28T11:03:38;2.30;;;1.02;;
22687;SDS011;11511;51.514;7.080;2022-12-28T11:06:09;1.55;;;0.80;;
22687;SDS011;11511;51.514;7.080;2022-12-28T11:08:44;3.78;;;1.00;;
22687;SDS011;11511;51.514;7.080;2022-12-28T11:11:24;2.10;;;0.80;;
22687;SDS011;11511;51.514;7.080;2022-12-28T11:14:05;1.13;;;0.80;;
22687;SDS011;11511;51.514;7.080;2022-12-28T11:16:40;1.17;;;0.80;;
22687;SDS011;11511;51.514;7.080;2022-12-28T11:19:06;1.42;;;0.75;;
22687;SDS011;11511;51.514;7.080;2022-12-28T11:21:32;0.80;;;0.80;;
22687;SDS011;11511;51.514;7.080;2022-12-28T11:23:59;2.28;;;0.93;;
22687;SDS011;11511;51.514;7.080;2022-12-28T11:26:26;4.90;;;0.93;;
22687;SDS011;11511;51.514;7.080;2022-12-28T11:28:53;1.63;;;1.10;;
22687;SDS011;11511;51.514;7.080;2022-12-28T11:31:21;2.05;;;1.10;;
22687;SDS011;11511;51.514;7.080;2022-12-28T11:33:58;3.38;;;1.20;;
22687;SDS011;11511;51.514;7.080;2022-12-28T11:36:29;3.85;;;1.10;;
22687;SDS011;11511;51.514;7.080;2022-12-28T11:39:29;1.77;;;0.93;;
22687;SDS011;11511;51.514;7.080;2022-12-28T11:41:53;2.08;;;1.08;;
22687;SDS011;11511;51.514;7.080;2022-12-28T11:44:21;1.20;;;0.90;;
22687;SDS011;11511;51.514;7.080;2022-12-28T11:46:57;3.30;;;1.00;;
22687;SDS011;11511;51.514;7.080;2022-12-28T11:49:30;2.80;;;1.20;;
22687;SDS011;11511;51.514;7.080;2022-12-28T11:52:43;3.13;;;1.00;;
22687;SDS011;11511;51.514;7.080;2022-12-28T11:54:59;3.45;;;1.20;;
22687;SDS011;11511;51.514;7.080;2022-12-28T11:57:46;5.28;;;1.33;;
22687;SDS011;11511;51.514;7.080;2022-12-28T12:02:47;4.60;;;1.25;;
22687;SDS011;11511;51.514;7.080;2022-12-28T12:05:46;2.08;;;1.10;;
22687;SDS011;11511;51.514;7.080;2022-12-28T12:10:42;1.58;;;1.00;;
22687;SDS011;11511;51.514;7.080;2022-12-28T12:16:03;1.75;;;1.30;;
22687;SDS011;11511;51.514;7.080;2022-12-28T12:18:37;3.38;;;1.50;;
22687;SDS011;11511;51.514;7.080;2022-12-28T12:21:13;5.05;;;1.30;;
22687;SDS011;11511;51.514;7.080;2022-12-28T12:23:52;3.67;;;1.25;;
22687;SDS011;11511;51.514;7.080;2022-12-28T12:26:36;2.20;;;1.23;;
22687;SDS011;11511;51.514;7.080;2022-12-28T12:32:14;2.85;;;1.13;;
22687;SDS011;11511;51.514;7.080;2022-12-28T12:34:52;2.08;;;1.10;;
22687;SDS011;11511;51.514;7.080;2022-12-28T12:50:58;3.55;;;1.33;;
22687;SDS011;11511;51.514;7.080;2022-12-28T12:53:48;3.90;;;1.25;;
22687;SDS011;11511;51.514;7.080;2022-12-28T12:56:26;1.73;;;1.20;;
22687;SDS011;11511;51.514;7.080;2022-12-28T12:59:20;5.45;;;1.30;;
22687;SDS011;11511;51.514;7.080;2022-12-28T13:04:35;5.70;;;1.50;;
22687;SDS011;11511;51.514;7.080;2022-12-28T13:07:04;2.42;;;1.23;;
22687;SDS011;11511;51.514;7.080;2022-12-28T13:09:37;2.78;;;1.20;;
22687;SDS011;11511;51.514;7.080;2022-12-28T13:12:07;5.32;;;1.25;;
22687;SDS011;11511;51.514;7.080;2022-12-28T13:14:38;1.83;;;0.95;;
22687;SDS011;11511;51.514;7.080;2022-12-28T13:17:11;3.17;;;1.17;;
22687;SDS011;11511;51.514;7.080;2022-12-28T13:19:44;2.08;;;1.15;;
22687;SDS011;11511;51.514;7.080;2022-12-28T13:22:25;1.63;;;1.15;;
22687;SDS011;11511;51.514;7.080;2022-12-28T13:24:52;2.13;;;1.40;;
22687;SDS011;11511;51.514;7.080;2022-12-28T13:27:19;2.00;;;1.20;;
22687;SDS011;11511;51.514;7.080;2022-12-28T13:29:52;6.00;;;1.48;;
22687;SDS011;11511;51.514;7.080;2022-12-28T13:32:33;3.08;;;1.45;;
22687;SDS011;11511;51.514;7.080;2022-12-28T13:35:01;3.42;;;1.50;;
22687;SDS011;11511;51.514;7.080;2022-12-28T13:37:28;2.90;;;1.30;;
22687;SDS011;11511;51.514;7.080;2022-12-28T13:40:10;5.63;;;1.60;;
22687;SDS011;11511;51.514;7.080;2022-12-28T13:42:49;3.60;;;1.60;;
22687;SDS011;11511;51.514;7.080;2022-12-28T13:45:38;3.58;;;1.60;;
22687;SDS011;11511;51.514;7.080;2022-12-28T13:48:04;4.80;;;1.67;;
22687;SDS011;11511;51.514;7.080;2022-12-28T13:50:31;2.95;;;1.42;;
22687;SDS011;11511;51.514;7.080;2022-12-28T13:52:59;4.80;;;1.45;;
22687;SDS011;11511;51.514;7.080;2022-12-28T13:55:44;1.92;;;1.25;;
22687;SDS011;11511;51.514;7.080;2022-12-28T13:58:16;2.05;;;1.40;;
22687;SDS011;11511;51.514;7.080;2022-12-28T14:00:46;2.72;;;1.48;;
22687;SDS011;11511;51.514;7.080;2022-12-28T14:03:14;3.55;;;1.13;;
22687;SDS011;11511;51.514;7.080;2022-12-28T14:05:41;2.90;;;1.50;;
22687;SDS011;11511;51.514;7.080;2022-12-28T14:08:09;8.02;;;1.50;;
22687;SDS011;11511;51.514;7.080;2022-12-28T14:10:35;4.10;;;1.50;;
22687;SDS011;11511;51.514;7.080;2022-12-28T14:13:01;4.13;;;1.40;;
22687;SDS011;11511;51.514;7.080;2022-12-28T14:15:28;2.40;;;1.30;;
22687;SDS011;11511;51.514;7.080;2022-12-28T14:17:55;4.72;;;1.30;;
22687;SDS011;11511;51.514;7.080;2022-12-28T14:20:21;1.92;;;1.25;;
22687;SDS011;11511;51.514;7.080;2022-12-28T14:22:47;2.33;;;1.13;;
22687;SDS011;11511;51.514;7.080;2022-12-28T14:25:16;4.13;;;1.35;;
22687;SDS011;11511;51.514;7.080;2022-12-28T14:27:45;2.67;;;1.17;;
22687;SDS011;11511;51.514;7.080;2022-12-28T14:30:21;4.82;;;1.30;;
22687;SDS011;11511;51.514;7.080;2022-12-28T14:32:49;3.10;;;1.30;;
22687;SDS011;11511;51.514;7.080;2022-12-28T14:35:17;2.25;;;1.23;;
22687;SDS011;11511;51.514;7.080;2022-12-28T14:37:48;3.05;;;1.20;;
22687;SDS011;11511;51.514;7.080;2022-12-28T14:40:20;4.22;;;1.27;;
22687;SDS011;11511;51.514;7.080;2022-12-28T14:42:50;2.83;;;1.58;;
22687;SDS011;11511;51.514;7.080;2022-12-28T14:46:06;3.55;;;1.27;;
22687;SDS011;11511;51.514;7.080;2022-12-28T14:51:20;3.03;;;1.20;;
22687;SDS011;11511;51.514;7.080;2022-12-28T14:56:36;4.22;;;1.40;;
22687;SDS011;11511;51.514;7.080;2022-12-28T14:59:02;4.63;;;1.40;;
22687;SDS011;11511;51.514;7.080;2022-12-28T15:01:40;3.60;;;1.48;;
22687;SDS011;11511;51.514;7.080;2022-12-28T15:04:09;3.75;;;1.20;;
22687;SDS011;11511;51.514;7.080;2022-12-28T15:06:50;2.60;;;1.17;;
22687;SDS011;11511;51.514;7.080;2022-12-28T15:09:16;5.15;;;1.30;;
22687;SDS011;11511;51.514;7.080;2022-12-28T15:11:43;1.85;;;1.23;;
22687;SDS011;11511;51.514;7.080;2022-12-28T15:14:10;2.85;;;1.30;;
22687;SDS011;11511;51.514;7.080;2022-12-28T15:16:36;3.05;;;1.23;;
22687;SDS011;11511;51.514;7.080;2022-12-28T15:19:02;3.30;;;1.52;;
22687;SDS011;11511;51.514;7.080;2022-12-28T15:21:28;3.25;;;1.17;;
22687;SDS011;11511;51.514;7.080;2022-12-28T15:23:54;3.22;;;1.40;;
22687;SDS011;11511;51.514;7.080;2022-12-28T15:26:21;3.15;;;1.42;;
22687;SDS011;11511;51.514;7.080;2022-12-28T15:28:49;3.05;;;1.50;;
22687;SDS011;11511;51.514;7.080;2022-12-28T15:31:16;2.63;;;1.48;;
22687;SDS011;11511;51.514;7.080;2022-12-28T15:33:45;6.32;;;1.92;;
22687;SDS011;11511;51.514;7.080;2022-12-28T15:36:12;4.00;;;1.48;;
22687;SDS011;11511;51.514;7.080;2022-12-28T15:38:41;3.97;;;1.20;;
22687;SDS011;11511;51.514;7.080;2022-12-28T15:41:07;1.77;;;1.45;;
22687;SDS011;11511;51.514;7.080;2022-12-28T15:43:52;2.35;;;1.27;;
22687;SDS011;11511;51.514;7.080;2022-12-28T15:46:18;4.22;;;1.30;;
22687;SDS011;11511;51.514;7.080;2022-12-28T15:48:44;2.47;;;1.20;;
22687;SDS011;11511;51.514;7.080;2022-12-28T15:51:10;4.32;;;1.70;;
22687;SDS011;11511;51.514;7.080;2022-12-28T15:53:35;4.55;;;1.70;;
22687;SDS011;11511;51.514;7.080;2022-12-28T15:56:01;2.95;;;1.52;;
22687;SDS011;11511;51.514;7.080;2022-12-28T15:58:27;4.68;;;1.50;;
22687;SDS011;11511;51.514;7.080;2022-12-28T16:00:54;3.35;;;1.42;;
22687;SDS011;11511;51.514;7.080;2022-12-28T16:03:32;4.18;;;1.63;;
22687;SDS011;11511;51.514;7.080;2022-12-28T16:05:58;3.28;;;1.63;;
22687;SDS011;11511;51.514;7.080;2022-12-28T16:08:24;2.70;;;1.50;;
22687;SDS011;11511;51.514;7.080;2022-12-28T16:10:50;4.72;;;1.98;;
22687;SDS011;11511;51.514;7.080;2022-12-28T16:13:15;2.00;;;1.40;;
22687;SDS011;11511;51.514;7.080;2022-12-28T16:15:41;2.00;;;1.40;;
22687;SDS011;11511;51.514;7.080;2022-12-28T16:18:07;2.20;;;1.63;;
22687;SDS011;11511;51.514;7.080;2022-12-28T16:20:33;3.45;;;1.48;;
22687;SDS011;11511;51.514;7.080;2022-12-28T16:22:58;2.22;;;1.30;;
22687;SDS011;11511;51.514;7.080;2022-12-28T16:25:24;2.67;;;1.58;;
22687;SDS011;11511;51.514;7.080;2022-12-28T16:27:50;4.65;;;1.75;;
22687;SDS011;11511;51.514;7.080;2022-12-28T16:30:15;4.13;;;1.70;;
22687;SDS011;11511;51.514;7.080;2022-12-28T16:32:41;5.65;;;1.67;;